createdAt,value
2022-11-20T00:01:08.161Z,99983.09
2022-11-20T00:03:36.119Z,99983.03
2022-11-20T00:06:04.581Z,99982.88
2022-11-20T00:08:32.716Z,99989.41
2022-11-20T00:11:04.930Z,99975.34
2022-11-20T00:13:32.878Z,99977.03
2022-11-20T00:16:01.270Z,99976.63
2022-11-20T00:18:30.589Z,99980.00
2022-11-20T00:21:03.586Z,99970.59
2022-11-20T00:23:31.111Z,99975.09
2022-11-20T00:25:59.235Z,99973.72
2022-11-20T00:28:26.990Z,99975.25
2022-11-20T00:30:54.770Z,99969.06
2022-11-20T00:33:22.477Z,99974.47
2022-11-20T00:35:51.584Z,99980.69
2022-11-20T00:38:19.337Z,99984.16
2022-11-20T00:40:49.859Z,99987.41
2022-11-20T00:43:21.468Z,99986.72
2022-11-20T00:45:49.216Z,99987.53
2022-11-20T00:48:16.941Z,99999.78
2022-11-20T00:50:44.716Z,99986.63
2022-11-20T00:53:13.918Z,99984.91
2022-11-20T00:55:42.008Z,99990.19
2022-11-20T00:58:14.144Z,99984.16
2022-11-20T01:00:42.249Z,99990.25
2022-11-20T01:03:10.033Z,99988.38
2022-11-20T01:05:37.739Z,99983.75
2022-11-20T01:08:05.986Z,99986.44
2022-11-20T01:10:35.053Z,99970.75
2022-11-20T01:13:19.292Z,99987.47
2022-11-20T01:15:49.250Z,99985.88
2022-11-20T01:18:17.002Z,99984.00
2022-11-20T01:20:44.795Z,99977.72
2022-11-20T01:23:12.539Z,99969.81
2022-11-20T01:25:41.867Z,99965.59
2022-11-20T01:28:09.561Z,99962.78
2022-11-20T01:30:37.257Z,99966.25
2022-11-20T01:33:05.009Z,99960.22
2022-11-20T01:35:32.794Z,99967.44
2022-11-20T01:38:00.598Z,99970.25
2022-11-20T01:40:28.407Z,99964.63
2022-11-20T01:43:31.650Z,99973.13
2022-11-20T01:46:14.302Z,99950.81
2022-11-20T01:48:48.618Z,99951.00
2022-11-20T01:51:22.914Z,99951.97
2022-11-20T01:53:52.460Z,99951.16
2022-11-20T01:56:20.591Z,99949.47
2022-11-20T01:58:54.280Z,99946.72
2022-11-20T02:01:22.712Z,99948.59
2022-11-20T02:03:51.522Z,99958.97
2022-11-20T02:06:24.980Z,99954.63
2022-11-20T02:08:53.467Z,99959.03
2022-11-20T02:11:21.482Z,99949.53
2022-11-20T02:13:50.654Z,99945.19
2022-11-20T02:16:23.421Z,99948.69
2022-11-20T02:18:52.424Z,99960.97
2022-11-20T02:21:29.340Z,99956.59
2022-11-20T02:24:07.811Z,99954.72
2022-11-20T02:26:41.299Z,99950.22
2022-11-20T02:29:09.102Z,99947.81
2022-11-20T02:31:40.391Z,99949.63
2022-11-20T02:34:08.176Z,99948.84
2022-11-20T02:36:37.664Z,99945.19
2022-11-20T02:39:07.582Z,99941.47
2022-11-20T02:41:36.851Z,99934.53
2022-11-20T02:44:05.642Z,99933.41
2022-11-20T02:46:34.068Z,99935.97
2022-11-20T02:49:03.431Z,99931.28
2022-11-20T02:51:31.320Z,99933.22
2022-11-20T02:53:59.542Z,99935.28
2022-11-20T02:56:29.113Z,99928.91
2022-11-20T02:58:56.924Z,99926.84
2022-11-20T03:01:24.923Z,99932.91
2022-11-20T03:03:55.445Z,99931.03
2022-11-20T03:06:23.606Z,99927.44
2022-11-20T03:08:51.394Z,99930.00
2022-11-20T03:11:19.935Z,99927.34
2022-11-20T03:13:49.067Z,99929.78
2022-11-20T03:16:18.826Z,99930.66
2022-11-20T03:18:46.929Z,99936.09
2022-11-20T03:21:15.851Z,99927.53
2022-11-20T03:23:43.689Z,99929.91
2022-11-20T03:26:13.896Z,99927.16
2022-11-20T03:28:42.323Z,99921.75
2022-11-20T03:31:13.460Z,99919.94
2022-11-20T03:33:42.739Z,99927.09
2022-11-20T03:36:13.404Z,99920.97
2022-11-20T03:38:41.842Z,99909.63
2022-11-20T03:41:11.359Z,99908.75
2022-11-20T03:43:39.461Z,99900.97
2022-11-20T03:46:08.197Z,99905.53
2022-11-20T03:48:37.318Z,99897.44
2022-11-20T03:51:13.216Z,99905.34
2022-11-20T03:53:41.423Z,99911.72
2022-11-20T03:56:10.333Z,99916.00
2022-11-20T03:58:40.408Z,99916.00
2022-11-20T04:01:09.987Z,99923.22
2022-11-20T04:03:40.666Z,99926.94
2022-11-20T04:06:11.194Z,99922.53
2022-11-20T04:08:39.332Z,99915.38
2022-11-20T04:11:11.786Z,99918.94
2022-11-20T04:13:39.717Z,99920.81
2022-11-20T04:16:08.994Z,99916.59
2022-11-20T04:18:37.385Z,99920.31
2022-11-20T04:21:07.267Z,99915.16
2022-11-20T04:23:35.072Z,99916.78
2022-11-20T04:26:04.407Z,99913.94
2022-11-20T04:28:32.103Z,99908.13
2022-11-20T04:31:08.014Z,99906.13
2022-11-20T04:33:36.332Z,99911.31
2022-11-20T04:36:06.757Z,99904.88
2022-11-20T04:38:35.311Z,99904.94
2022-11-20T04:41:05.054Z,99895.25
2022-11-20T04:43:33.448Z,99894.78
2022-11-20T04:46:02.436Z,99894.78
2022-11-20T04:48:31.557Z,99896.56
2022-11-20T04:50:59.391Z,99890.34
2022-11-20T04:53:28.454Z,99893.75
2022-11-20T04:56:02.323Z,99888.41
2022-11-20T04:58:30.393Z,99884.09
2022-11-20T05:01:03.219Z,99886.72
2022-11-20T05:03:31.040Z,99889.16
2022-11-20T05:06:01.699Z,99883.88
2022-11-20T05:08:31.254Z,99887.56
2022-11-20T05:11:02.535Z,99890.19
2022-11-20T05:13:30.282Z,99888.41
2022-11-20T05:16:02.715Z,99883.97
2022-11-20T05:18:30.530Z,99880.06
2022-11-20T05:20:58.546Z,99878.88
2022-11-20T05:23:26.589Z,99874.53
2022-11-20T05:25:59.447Z,99881.59
2022-11-20T05:28:28.098Z,99881.78
2022-11-20T05:30:56.541Z,99877.34
2022-11-20T05:33:24.354Z,99876.50
2022-11-20T05:35:52.133Z,99883.09
2022-11-20T05:38:19.818Z,99879.44
2022-11-20T05:40:47.475Z,99875.03
2022-11-20T05:43:16.518Z,99869.84
2022-11-20T05:45:46.321Z,99878.66
2022-11-20T05:48:14.008Z,99868.91
2022-11-20T05:50:41.718Z,99868.13
2022-11-20T05:53:09.429Z,99866.47
2022-11-20T05:55:37.083Z,99865.13
2022-11-20T05:58:04.829Z,99860.88
2022-11-20T06:00:33.937Z,99868.94
2022-11-20T06:03:01.710Z,99860.41
2022-11-20T06:05:29.490Z,99872.69
2022-11-20T06:07:57.251Z,99868.38
2022-11-20T06:10:24.908Z,99872.59
2022-11-20T06:12:52.617Z,99869.06
2022-11-20T06:15:20.339Z,99869.13
2022-11-20T06:17:49.348Z,99865.91
2022-11-20T06:20:17.205Z,99868.28
2022-11-20T06:22:44.902Z,99864.47
2022-11-20T06:25:12.574Z,99866.91
2022-11-20T06:27:40.250Z,99869.72
2022-11-20T06:30:09.171Z,99870.66
2022-11-20T06:32:36.828Z,99867.84
2022-11-20T06:35:06.747Z,99871.25
2022-11-20T06:37:34.487Z,99870.00
2022-11-20T06:40:02.146Z,99868.34
2022-11-20T06:42:29.849Z,99866.81
2022-11-20T06:44:58.120Z,99868.84
2022-11-20T06:47:25.926Z,99869.72
2022-11-20T06:49:53.627Z,99877.63
2022-11-20T06:52:22.833Z,99876.59
2022-11-20T06:54:50.592Z,99886.00
2022-11-20T06:57:18.290Z,99877.34
2022-11-20T06:59:46.552Z,99876.50
2022-11-20T07:02:14.404Z,99879.13
2022-11-20T07:04:42.088Z,99879.97
2022-11-20T07:07:10.941Z,99879.03
2022-11-20T07:09:40.308Z,99887.88
2022-11-20T07:12:08.279Z,99882.53
2022-11-20T07:14:36.533Z,99887.88
2022-11-20T07:17:04.389Z,99892.03
2022-11-20T07:19:32.188Z,99884.13
2022-11-20T07:21:59.921Z,99886.84
2022-11-20T07:24:27.658Z,99887.59
2022-11-20T07:26:56.759Z,99886.47
2022-11-20T07:29:24.477Z,99893.25
2022-11-20T07:31:52.206Z,99888.75
2022-11-20T07:34:20.923Z,99889.50
2022-11-20T07:36:48.537Z,99893.94
2022-11-20T07:39:16.868Z,99891.97
2022-11-20T07:41:44.887Z,99889.91
2022-11-20T07:44:13.948Z,99893.41
2022-11-20T07:46:41.624Z,99899.53
2022-11-20T07:49:09.605Z,99892.38
2022-11-20T07:51:37.343Z,99892.19
2022-11-20T07:54:05.300Z,99896.53
2022-11-20T07:56:33.001Z,99891.34
2022-11-20T07:59:00.677Z,99893.06
2022-11-20T08:01:29.694Z,99905.09
2022-11-20T08:03:57.430Z,99901.63
2022-11-20T08:06:25.708Z,99902.25
2022-11-20T08:08:53.521Z,99909.41
2022-11-20T08:11:38.727Z,99913.66
2022-11-20T08:14:15.415Z,99914.44
2022-11-20T08:16:46.873Z,99918.75
2022-11-20T08:19:15.664Z,99918.56
2022-11-20T08:21:43.537Z,99918.47
2022-11-20T08:24:12.157Z,99930.72
2022-11-20T08:26:41.186Z,99935.03
2022-11-20T08:29:09.245Z,99934.94
2022-11-20T08:31:37.282Z,99937.50
2022-11-20T08:34:09.136Z,99929.59
2022-11-20T08:36:37.650Z,99937.56
2022-11-20T08:39:05.705Z,99934.09
2022-11-20T08:41:34.318Z,99942.09
2022-11-20T08:44:03.803Z,99939.38
2022-11-20T08:46:35.478Z,99947.19
2022-11-20T08:49:03.285Z,99952.63
2022-11-20T08:51:33.795Z,99951.69
2022-11-20T08:54:01.731Z,99954.13
2022-11-20T08:56:29.846Z,99952.25
2022-11-20T09:01:45.412Z,99955.75
2022-11-20T09:04:15.283Z,99962.72
2022-11-20T09:06:44.425Z,99959.03
2022-11-20T09:09:12.191Z,99952.09
2022-11-20T09:11:39.915Z,99966.78
2022-11-20T09:14:07.723Z,99951.88
2022-11-20T09:16:35.412Z,99954.44
2022-11-20T09:19:28.648Z,99949.00
2022-11-20T09:21:56.892Z,99954.00
2022-11-20T09:24:27.113Z,99955.88
2022-11-20T09:26:54.938Z,99956.63
2022-11-20T09:29:23.256Z,99967.34
2022-11-20T09:31:51.228Z,99966.25
2022-11-20T09:34:19.087Z,99967.09
2022-11-20T09:36:47.228Z,99973.09
2022-11-20T09:39:16.270Z,99963.31
2022-11-20T09:42:25.590Z,99966.88
2022-11-20T09:45:14.185Z,99972.06
2022-11-20T09:47:55.677Z,99962.28
2022-11-20T09:50:30.875Z,99964.00
2022-11-20T09:53:13.380Z,99962.94
2022-11-20T09:55:42.697Z,99971.53
2022-11-20T09:58:23.663Z,99972.38
2022-11-20T10:00:54.665Z,99954.97
2022-11-20T10:03:38.270Z,99963.88
2022-11-20T10:06:10.655Z,99954.97
2022-11-20T10:08:43.992Z,99962.59
2022-11-20T10:11:21.630Z,99969.19
2022-11-20T10:14:00.589Z,99962.59
2022-11-20T10:16:40.743Z,99961.28
2022-11-20T10:19:25.718Z,99961.38
2022-11-20T10:22:01.814Z,99955.72
2022-11-20T10:24:44.686Z,99959.31
2022-11-20T10:27:32.628Z,99958.56
2022-11-20T10:30:04.627Z,99953.28
2022-11-20T10:32:38.225Z,99952.25
2022-11-20T10:35:16.447Z,99947.91
2022-11-20T10:37:46.880Z,99937.19
2022-11-20T10:40:23.757Z,99934.63
2022-11-20T10:42:57.082Z,99937.72
2022-11-20T10:45:37.608Z,99936.41
2022-11-20T10:48:14.769Z,99930.00
2022-11-20T10:50:53.241Z,99932.34
2022-11-20T10:53:33.549Z,99935.63
2022-11-20T10:56:10.864Z,99927.16
2022-11-20T10:58:47.987Z,99924.97
2022-11-20T11:01:18.025Z,99932.22
2022-11-20T11:03:46.058Z,99921.72
2022-11-20T11:06:23.898Z,99921.66
2022-11-20T11:08:53.906Z,99918.00
2022-11-20T11:11:25.113Z,99902.31
2022-11-20T11:13:54.425Z,99909.75
2022-11-20T11:16:23.992Z,99915.56
2022-11-20T11:18:52.131Z,99898.28
2022-11-20T11:21:27.226Z,99897.13
2022-11-20T11:24:19.848Z,99899.75
2022-11-20T11:27:05.504Z,99904.84
2022-11-20T11:29:35.351Z,99886.16
2022-11-20T11:32:07.923Z,99884.31
2022-11-20T11:34:36.480Z,99885.44
2022-11-20T11:37:05.304Z,99873.22
2022-11-20T11:39:35.804Z,99872.72
2022-11-20T11:42:04.146Z,99870.59
2022-11-20T11:44:54.867Z,99870.66
2022-11-20T11:47:26.045Z,99867.91
2022-11-20T11:50:04.588Z,99863.31
2022-11-20T11:52:35.013Z,99863.25
2022-11-20T11:55:10.256Z,99851.81
2022-11-20T11:57:47.172Z,99857.13
2022-11-20T12:00:18.777Z,99853.56
2022-11-20T12:02:59.780Z,99850.59
2022-11-20T12:05:31.057Z,99848.53
2022-11-20T12:08:04.355Z,99845.56
2022-11-20T12:10:46.164Z,99843.13
2022-11-20T12:13:24.268Z,99851.59
2022-11-20T12:15:53.755Z,99846.72
2022-11-20T12:18:23.372Z,99846.50
2022-11-20T12:21:04.208Z,99843.97
2022-11-20T12:23:42.658Z,99844.06
2022-11-20T12:26:21.199Z,99841.56
2022-11-20T12:29:04.234Z,99840.84
2022-11-20T12:31:57.888Z,99843.50
2022-11-20T12:34:48.549Z,99836.75
2022-11-20T12:37:31.996Z,99838.31
2022-11-20T12:40:11.799Z,99824.44
2022-11-20T12:43:10.015Z,99834.94
2022-11-20T12:45:56.301Z,99835.88
2022-11-20T12:48:46.262Z,99827.69
2022-11-20T12:51:49.408Z,99818.75
2022-11-20T12:54:53.873Z,99814.31
2022-11-20T12:57:28.332Z,99818.75
2022-11-20T13:00:09.384Z,99813.94
2022-11-20T13:02:47.602Z,99818.38
2022-11-20T13:05:23.791Z,99813.59
2022-11-20T13:07:55.695Z,99816.00
2022-11-20T13:10:33.858Z,99809.34
2022-11-20T13:13:12.882Z,99809.00
2022-11-20T13:15:50.697Z,99809.31
2022-11-20T13:18:18.998Z,99804.50
2022-11-20T13:20:49.265Z,99802.41
2022-11-20T13:23:26.776Z,99801.34
2022-11-20T13:26:05.484Z,99791.28
2022-11-20T13:28:33.614Z,99791.16
2022-11-20T13:31:01.490Z,99787.41
2022-11-20T13:33:32.829Z,99789.13
2022-11-20T13:36:04.496Z,99783.69
2022-11-20T13:38:44.851Z,99780.31
2022-11-20T13:41:32.394Z,99782.69
2022-11-20T13:44:09.100Z,99773.66
2022-11-20T13:46:39.449Z,99771.72
2022-11-20T13:49:12.431Z,99773.50
2022-11-20T13:51:47.638Z,99769.78
2022-11-20T13:54:52.750Z,99766.00
2022-11-20T13:57:37.109Z,99761.94
2022-11-20T14:00:13.827Z,99761.34
2022-11-20T14:02:42.660Z,99761.34
2022-11-20T14:05:21.087Z,99753.38
2022-11-20T14:07:52.424Z,99750.38
2022-11-20T14:10:31.341Z,99749.91
2022-11-20T14:13:00.715Z,99747.66
2022-11-20T14:15:31.619Z,99740.91
2022-11-20T14:18:00.330Z,99733.19
2022-11-20T14:20:30.582Z,99739.84
2022-11-20T14:22:59.743Z,99735.88
2022-11-20T14:25:28.859Z,99743.25
2022-11-20T14:27:59.299Z,99735.53
2022-11-20T14:30:28.936Z,99740.47
2022-11-20T14:32:59.415Z,99740.84
2022-11-20T14:35:29.006Z,99728.53
2022-11-20T14:37:57.851Z,99728.53
2022-11-20T14:40:30.404Z,99727.72
2022-11-20T14:42:58.766Z,99735.19
2022-11-20T14:45:27.829Z,99731.22
2022-11-20T14:47:58.270Z,99724.34
2022-11-20T14:50:28.090Z,99721.81
2022-11-20T14:52:57.906Z,99720.38
2022-11-20T14:55:32.140Z,99720.66
2022-11-20T14:58:02.078Z,99714.63
2022-11-20T15:00:31.258Z,99713.19
2022-11-20T15:02:59.239Z,99716.19
2022-11-20T15:05:45.670Z,99718.25
2022-11-20T15:08:15.820Z,99709.81
2022-11-20T15:10:50.214Z,99711.75
2022-11-20T15:13:26.605Z,99706.69
2022-11-20T15:15:56.981Z,99700.81
2022-11-20T15:18:29.178Z,99698.38
2022-11-20T15:20:58.479Z,99702.13
2022-11-20T15:23:30.086Z,99699.69
2022-11-20T15:25:59.975Z,99695.50
2022-11-20T15:28:32.912Z,99697.44
2022-11-20T15:31:00.941Z,99700.31
2022-11-20T15:33:28.719Z,99703.09
2022-11-20T15:35:56.602Z,99700.69
2022-11-20T15:38:24.575Z,99699.94
2022-11-20T15:40:52.510Z,99692.38
2022-11-20T15:43:21.687Z,99689.72
2022-11-20T15:45:53.148Z,99691.66
2022-11-20T15:48:23.822Z,99680.44
2022-11-20T15:50:56.512Z,99685.84
2022-11-20T15:53:24.595Z,99684.19
2022-11-20T15:55:52.332Z,99676.34
2022-11-20T15:58:21.544Z,99676.47
2022-11-20T16:00:49.368Z,99671.28
2022-11-20T16:03:18.751Z,99664.19
2022-11-20T16:05:47.625Z,99661.78
2022-11-20T16:08:15.988Z,99659.38
2022-11-20T16:10:44.087Z,99660.44
2022-11-20T16:13:32.702Z,99661.31
2022-11-20T16:16:05.908Z,99663.22
2022-11-20T16:18:34.843Z,99659.97
2022-11-20T16:21:02.975Z,99660.94
2022-11-20T16:23:30.893Z,99650.44
2022-11-20T16:25:58.713Z,99655.03
2022-11-20T16:28:27.053Z,99651.53
2022-11-20T16:30:55.337Z,99646.34
2022-11-20T16:33:24.635Z,99644.56
2022-11-20T16:35:52.344Z,99649.88
2022-11-20T16:38:20.146Z,99646.25
2022-11-20T16:40:47.914Z,99643.38
2022-11-20T16:43:16.133Z,99639.72
2022-11-20T16:45:45.922Z,99638.78
2022-11-20T16:48:15.229Z,99641.28
2022-11-20T16:50:52.137Z,99637.81
2022-11-20T16:53:20.990Z,99627.47
2022-11-20T16:55:48.983Z,99626.75
2022-11-20T16:58:17.392Z,99626.97
2022-11-20T17:00:51.204Z,99617.59
2022-11-20T17:03:21.008Z,99617.69
2022-11-20T17:05:50.369Z,99619.63
2022-11-20T17:08:18.171Z,99624.91
2022-11-20T17:10:45.976Z,99609.16
2022-11-20T17:13:13.700Z,99613.59
2022-11-20T17:15:41.428Z,99604.81
2022-11-20T17:18:09.180Z,99611.78
2022-11-20T17:20:36.933Z,99609.41
2022-11-20T17:23:06.021Z,99601.56
2022-11-20T17:25:34.234Z,99595.56
2022-11-20T17:28:02.094Z,99595.81
2022-11-20T17:30:29.868Z,99584.59
2022-11-20T17:32:57.558Z,99582.91
2022-11-20T17:35:25.335Z,99584.72
2022-11-20T17:37:53.053Z,99584.00
2022-11-20T17:40:27.163Z,99583.16
2022-11-20T17:42:55.780Z,99571.72
2022-11-20T17:45:23.539Z,99579.41
2022-11-20T17:47:51.255Z,99577.88
2022-11-20T17:50:18.987Z,99578.94
2022-11-20T17:52:46.703Z,99571.72
2022-11-20T17:55:14.454Z,99571.72
2022-11-20T17:57:56.782Z,99570.88
2022-11-20T18:00:25.201Z,99568.59
2022-11-20T18:02:52.921Z,99570.66
2022-11-20T18:05:20.665Z,99564.03
2022-11-20T18:07:48.438Z,99561.59
2022-11-20T18:10:16.174Z,99569.69
2022-11-20T18:12:45.355Z,99567.16
2022-11-20T18:15:13.075Z,99561.13
2022-11-20T18:17:40.771Z,99559.31
2022-11-20T18:22:58.478Z,99554.63
2022-11-20T18:25:26.628Z,99543.81
2022-11-20T18:27:56.393Z,99547.19
2022-11-20T18:30:24.599Z,99545.84
2022-11-20T18:32:52.366Z,99552.94
2022-11-20T18:35:20.164Z,99544.13
2022-11-20T18:37:48.499Z,99551.97
2022-11-20T18:40:16.387Z,99544.63
2022-11-20T18:43:01.565Z,99541.00
2022-11-20T18:45:30.788Z,99539.56
2022-11-20T18:47:58.516Z,99538.22
2022-11-20T18:50:26.245Z,99542.94
2022-11-20T18:52:53.966Z,99538.94
2022-11-20T18:55:25.001Z,99533.03
2022-11-20T18:57:52.771Z,99537.34
2022-11-20T19:00:21.004Z,99539.16
2022-11-20T19:02:53.376Z,99528.09
2022-11-20T19:05:21.365Z,99526.41
2022-11-20T19:07:49.074Z,99522.94
2022-11-20T19:10:20.374Z,99518.47
2022-11-20T19:12:48.265Z,99517.75
2022-11-20T19:15:16.122Z,99517.28
2022-11-20T19:17:43.909Z,99520.84
2022-11-20T19:20:14.332Z,99518.31
2022-11-20T19:22:42.129Z,99518.44
2022-11-20T19:25:10.305Z,99526.50
2022-11-20T19:27:38.316Z,99522.16
2022-11-20T19:30:07.064Z,99529.38
2022-11-20T19:32:35.325Z,99518.91
2022-11-20T19:35:03.670Z,99527.56
2022-11-20T19:37:35.154Z,99533.81
2022-11-20T19:40:04.735Z,99525.06
2022-11-20T19:42:33.306Z,99532.84
2022-11-20T19:45:01.105Z,99525.53
2022-11-20T19:47:52.795Z,99521.31
2022-11-20T19:50:17.010Z,99523.00
2022-11-20T19:52:46.138Z,99512.09
2022-11-20T19:55:13.863Z,99499.81
2022-11-20T19:57:41.726Z,99489.25
2022-11-20T20:00:10.747Z,99495.25
2022-11-20T20:02:38.496Z,99497.88
2022-11-20T20:05:07.078Z,99492.59
2022-11-20T20:07:34.924Z,99490.91
2022-11-20T20:10:04.322Z,99496.44
2022-11-20T20:12:32.074Z,99498.00
2022-11-20T20:14:59.809Z,99501.94
2022-11-20T20:17:27.593Z,99506.03
2022-11-20T20:19:55.425Z,99517.19
2022-11-20T20:22:23.216Z,99503.13
2022-11-20T20:24:52.033Z,99495.94
2022-11-20T20:27:21.221Z,99500.81
2022-11-20T20:29:48.983Z,99509.34
2022-11-20T20:32:16.824Z,99494.19
2022-11-20T20:34:44.581Z,99491.44
2022-11-20T20:37:12.299Z,99483.72
2022-11-20T20:39:40.021Z,99488.28
2022-11-20T20:42:07.783Z,99479.72
2022-11-20T20:44:53.306Z,99477.91
2022-11-20T20:47:21.050Z,99493.91
2022-11-20T20:49:48.801Z,99484.63
2022-11-20T20:52:16.628Z,99491.00
2022-11-20T20:54:44.384Z,99489.09
2022-11-20T20:57:12.745Z,99489.31
2022-11-20T20:59:41.914Z,99480.66
2022-11-20T21:02:11.142Z,99490.28
2022-11-20T21:04:39.099Z,99490.38
2022-11-20T21:07:07.054Z,99483.06
2022-11-20T21:09:34.798Z,99480.44
2022-11-20T21:12:02.554Z,99483.91
2022-11-20T21:14:30.308Z,99486.66
2022-11-20T21:16:59.423Z,99484.38
2022-11-20T21:19:27.294Z,99473.66
2022-11-20T21:22:00.164Z,99460.72
2022-11-20T21:24:28.073Z,99454.34
2022-11-20T21:26:56.118Z,99458.91
2022-11-20T21:29:25.325Z,99461.91
2022-11-20T21:31:54.047Z,99466.44
2022-11-20T21:34:23.931Z,99470.75
2022-11-20T21:36:52.111Z,99460.28
2022-11-20T21:39:21.767Z,99464.75
2022-11-20T21:41:49.617Z,99470.16
2022-11-20T21:44:31.042Z,99469.59
2022-11-20T21:47:05.370Z,99458.81
2022-11-20T21:49:34.549Z,99466.13
2022-11-20T21:52:02.291Z,99471.91
2022-11-20T21:54:30.932Z,99464.94
2022-11-20T21:56:58.979Z,99467.00
2022-11-20T21:59:26.803Z,99468.56
2022-11-20T22:01:54.727Z,99470.97
2022-11-20T22:04:23.390Z,99470.63
2022-11-20T22:06:52.802Z,99479.53
2022-11-20T22:09:20.542Z,99478.44
2022-11-20T22:11:48.364Z,99482.75
2022-11-20T22:14:21.566Z,99478.91
2022-11-20T22:16:50.378Z,99475.56
2022-11-20T22:19:20.050Z,99473.88
2022-11-20T22:21:48.100Z,99476.41
2022-11-20T22:24:19.729Z,99473.06
2022-11-20T22:26:48.119Z,99463.41
2022-11-20T22:29:17.020Z,99463.81
2022-11-20T22:31:45.274Z,99463.81
2022-11-20T22:34:14.050Z,99451.53
2022-11-20T22:36:42.327Z,99468.63
2022-11-20T22:39:10.651Z,99486.53
2022-11-20T22:41:39.701Z,99476.66
2022-11-20T22:44:09.027Z,99474.00
2022-11-20T22:46:38.275Z,99477.88
2022-11-20T22:49:08.727Z,99480.75
2022-11-20T22:51:38.737Z,99485.22
2022-11-20T22:54:06.724Z,99496.06
2022-11-20T22:56:35.349Z,99498.44
2022-11-20T22:59:04.803Z,99495.19
2022-11-20T23:01:34.025Z,99498.81
2022-11-20T23:04:03.586Z,99495.06
2022-11-20T23:06:34.113Z,99489.28
2022-11-20T23:09:02.155Z,99485.69
2022-11-20T23:11:31.473Z,99483.78
2022-11-20T23:14:01.240Z,99483.06
2022-11-20T23:16:32.491Z,99489.78
2022-11-20T23:19:02.037Z,99475.69
2022-11-20T23:21:29.844Z,99469.44
2022-11-20T23:23:59.295Z,99468.34
2022-11-20T23:26:29.882Z,99462.94
2022-11-20T23:28:59.427Z,99462.09
2022-11-20T23:31:29.307Z,99470.28
2022-11-20T23:33:58.353Z,99485.91
2022-11-20T23:36:26.009Z,99481.97
2022-11-20T23:38:53.730Z,99496.97
2022-11-20T23:41:21.437Z,99494.31
2022-11-20T23:43:49.161Z,99493.00
2022-11-20T23:46:17.217Z,99486.53
2022-11-20T23:48:46.026Z,99503.25
2022-11-20T23:51:15.501Z,99505.41
2022-11-20T23:53:43.401Z,99499.28
2022-11-20T23:56:14.368Z,99498.19
2022-11-20T23:58:42.489Z,99496.41
